Time;durP1;ratioP1;P1;durP2;ratioP2;P2;SDS_P1;SDS_P2;PMS_P1;PMS_P2;Temp;Humidity;BMP_temperature;BMP_pressure;BME280_temperature;BME280_humidity;BME280_pressure;Samples;Min_cycle;Max_cycle;Signal;HPM_P1;HPM_P2
2023/01/27 00:00:06;;;;;;;19.65;11.32;;;4.20;99.90;;;;;;6150940;23;20505;-81
2023/01/27 00:02:32;;;;;;;13.55;9.75;;;4.20;99.90;;;;;;6150621;23;20024;-82
2023/01/27 00:04:57;;;;;;;13.80;10.55;;;4.20;99.90;;;;;;6150752;23;20013;-81
2023/01/27 00:07:23;;;;;;;13.73;10.40;;;4.20;99.90;;;;;;6128132;23;20481;-80
2023/01/27 00:09:48;;;;;;;13.25;9.68;;;4.20;99.90;;;;;;6126634;23;20446;-80
2023/01/27 00:15:05;;;;;;;19.23;10.98;;;4.20;99.90;;;;;;6151227;23;20104;-81
2023/01/27 00:17:31;;;;;;;12.13;9.52;;;4.20;99.90;;;;;;6151603;23;20028;-81
2023/01/27 00:19:56;;;;;;;13.15;9.93;;;4.10;99.90;;;;;;6151740;23;20009;-81
2023/01/27 00:25:06;;;;;;;13.95;10.15;;;4.20;99.90;;;;;;6149292;23;20462;-81
2023/01/27 00:27:32;;;;;;;12.68;10.20;;;4.20;99.90;;;;;;6150114;23;20018;-82
2023/01/27 00:29:57;;;;;;;13.10;10.63;;;4.20;99.90;;;;;;6150444;23;20017;-80
2023/01/27 00:35:07;;;;;;;12.25;9.00;;;4.20;99.90;;;;;;6148045;23;20116;-81
2023/01/27 00:37:33;;;;;;;16.27;9.38;;;4.20;99.90;;;;;;6126637;23;20458;-81
2023/01/27 00:39:58;;;;;;;11.77;10.02;;;4.20;99.90;;;;;;6149590;23;20013;-81
2023/01/27 00:42:24;;;;;;;11.50;10.40;;;4.20;99.90;;;;;;6152226;23;20009;-80
2023/01/27 00:47:34;;;;;;;12.68;9.52;;;4.20;99.90;;;;;;6150989;23;20022;-80
2023/01/27 00:49:59;;;;;;;11.60;9.68;;;4.10;99.90;;;;;;6151615;23;20010;-81
2023/01/27 00:52:25;;;;;;;10.68;7.63;;;4.20;99.90;;;;;;6152324;23;20020;-82
2023/01/27 00:54:50;;;;;;;7.78;6.97;;;4.20;99.90;;;;;;6126349;23;20021;-81
2023/01/27 00:57:16;;;;;;;9.85;6.88;;;4.20;99.90;;;;;;6150906;23;20014;-81
2023/01/27 00:59:42;;;;;;;10.27;8.20;;;4.20;99.90;;;;;;6151579;23;20013;-81
2023/01/27 01:02:07;;;;;;;8.60;7.72;;;4.10;99.90;;;;;;6152493;23;20021;-82
2023/01/27 01:04:33;;;;;;;8.43;6.70;;;4.20;99.90;;;;;;6151029;23;20103;-81
2023/01/27 01:06:58;;;;;;;7.93;6.30;;;4.10;99.90;;;;;;6126172;23;20021;-82
2023/01/27 01:09:24;;;;;;;11.18;6.18;;;4.20;99.90;;;;;;6152038;23;20044;-80
2023/01/27 01:11:49;;;;;;;7.80;7.00;;;4.20;99.90;;;;;;6127377;23;20072;-82
2023/01/27 01:14:15;;;;;;;7.95;7.18;;;4.20;99.90;;;;;;6126043;23;20478;-81
2023/01/27 01:16:40;;;;;;;8.50;7.38;;;4.20;99.90;;;;;;6126780;23;20017;-81
2023/01/27 01:19:06;;;;;;;8.70;7.93;;;4.20;99.90;;;;;;6127604;23;20024;-81
2023/01/27 01:21:32;;;;;;;8.52;7.30;;;4.10;99.90;;;;;;6150330;23;20016;-81
2023/01/27 01:23:57;;;;;;;9.65;8.18;;;4.10;99.90;;;;;;6150722;23;20014;-81
2023/01/27 01:26:23;;;;;;;9.93;8.00;;;4.20;99.90;;;;;;6126745;23;20053;-82
2023/01/27 01:28:48;;;;;;;9.40;7.97;;;4.20;99.90;;;;;;6151259;23;20028;-82
2023/01/27 01:31:18;;;;;;;9.40;7.35;;;4.10;99.90;;;;;;6126451;23;20013;-81
2023/01/27 01:33:45;;;;;;;7.95;7.10;;;4.20;99.90;;;;;;6126452;23;20013;-81
2023/01/27 01:36:14;;;;;;;8.50;7.63;;;4.10;99.90;;;;;;6125483;23;20040;-82
2023/01/27 01:38:39;;;;;;;7.75;6.88;;;4.20;99.90;;;;;;6151967;23;20037;-81
2023/01/27 01:41:06;;;;;;;7.60;6.82;;;4.20;99.90;;;;;;6126792;23;20479;-81
2023/01/27 01:43:32;;;;;;;10.32;7.30;;;4.10;99.90;;;;;;6126508;23;20017;-81
2023/01/27 01:46:01;;;;;;;6.95;6.25;;;4.10;99.90;;;;;;6151128;23;20021;-81
2023/01/27 01:48:41;;;;;;;7.95;6.47;;;4.10;99.90;;;;;;6127400;23;20019;-83
2023/01/27 01:51:21;;;;;;;7.53;6.47;;;4.20;99.90;;;;;;6151860;23;20539;-81
2023/01/27 01:53:54;;;;;;;7.43;6.68;;;4.20;99.90;;;;;;6151065;23;20077;-81
2023/01/27 01:56:25;;;;;;;7.05;6.35;;;4.20;99.90;;;;;;6150347;23;20014;-81
2023/01/27 01:58:53;;;;;;;8.02;6.38;;;4.20;99.90;;;;;;6151977;23;20080;-81
2023/01/27 02:01:19;;;;;;;8.90;6.60;;;4.20;99.90;;;;;;6151363;23;20017;-81
2023/01/27 02:03:52;;;;;;;8.32;6.97;;;4.30;99.90;;;;;;6126973;23;20020;-80
2023/01/27 02:06:18;;;;;;;8.82;5.60;;;4.30;99.90;;;;;;6150187;23;20738;-82
2023/01/27 02:08:46;;;;;;;11.80;5.55;;;4.30;99.90;;;;;;6126524;23;20092;-82
2023/01/27 02:11:12;;;;;;;5.68;4.90;;;4.30;99.90;;;;;;6151300;23;20017;-81
2023/01/27 02:13:38;;;;;;;8.07;4.93;;;4.30;99.90;;;;;;6152857;23;20029;-81
2023/01/27 02:16:04;;;;;;;6.28;4.47;;;4.20;99.90;;;;;;6152293;23;20014;-81
2023/01/27 02:18:31;;;;;;;6.22;4.43;;;4.20;99.90;;;;;;6153336;23;20442;-82
2023/01/27 02:20:57;;;;;;;6.40;3.75;;;4.30;99.90;;;;;;6129468;23;20718;-81
2023/01/27 02:23:38;;;;;;;5.38;3.03;;;4.30;99.90;;;;;;6155578;23;20040;-81
2023/01/27 02:26:12;;;;;;;4.70;2.92;;;4.30;99.90;;;;;;6126666;23;20021;-82
2023/01/27 02:28:38;;;;;;;4.55;2.58;;;4.30;99.90;;;;;;6151727;23;20017;-83
2023/01/27 02:31:03;;;;;;;5.50;2.95;;;4.30;99.90;;;;;;6151433;23;20695;-81
2023/01/27 02:33:29;;;;;;;3.63;2.92;;;4.30;99.90;;;;;;6127055;23;20017;-81
2023/01/27 02:36:04;;;;;;;3.78;1.90;;;4.20;99.90;;;;;;6153296;23;20016;-82
2023/01/27 02:38:34;;;;;;;3.67;2.72;;;4.30;99.90;;;;;;6130996;23;20055;-81
2023/01/27 02:41:09;;;;;;;5.55;2.47;;;4.30;99.90;;;;;;6152990;23;20044;-81
2023/01/27 02:43:35;;;;;;;4.95;1.90;;;4.30;99.90;;;;;;6127744;23;20060;-81
2023/01/27 02:46:01;;;;;;;3.33;1.70;;;4.30;99.90;;;;;;6152988;23;20021;-82
2023/01/27 02:48:26;;;;;;;3.15;1.63;;;4.30;99.90;;;;;;6153654;23;20017;-81
2023/01/27 02:50:52;;;;;;;3.38;1.45;;;4.30;99.90;;;;;;6152319;23;20021;-82
2023/01/27 02:53:17;;;;;;;3.05;1.38;;;4.30;99.90;;;;;;6127685;23;20097;-81
2023/01/27 02:55:43;;;;;;;4.18;2.17;;;4.30;99.90;;;;;;6151755;23;20061;-81
2023/01/27 02:58:08;;;;;;;3.10;1.08;;;4.30;99.90;;;;;;6152189;23;20350;-81
2023/01/27 03:00:34;;;;;;;2.13;0.70;;;4.40;99.90;;;;;;6150778;23;20028;-81
2023/01/27 03:03:00;;;;;;;2.75;0.93;;;4.40;99.90;;;;;;6126266;23;20171;-80
2023/01/27 03:05:26;;;;;;;1.50;0.90;;;4.50;99.90;;;;;;6151098;23;20009;-81
2023/01/27 03:07:51;;;;;;;2.38;1.02;;;4.50;99.90;;;;;;6151860;23;20029;-81
2023/01/27 03:10:17;;;;;;;1.70;0.80;;;4.40;99.90;;;;;;6147357;23;20017;-82
2023/01/27 03:12:43;;;;;;;2.65;1.17;;;4.40;99.90;;;;;;6151007;23;20013;-80
2023/01/27 03:21:00;;;;;;;3.42;1.17;;;4.40;99.90;;;;;;6152563;23;20022;-82
2023/01/27 03:23:26;;;;;;;2.08;0.70;;;4.40;99.90;;;;;;6152721;23;20366;-81
2023/01/27 03:25:52;;;;;;;2.05;0.82;;;4.50;99.90;;;;;;6151166;23;20101;-80
2023/01/27 03:28:17;;;;;;;1.70;0.63;;;4.40;99.90;;;;;;6151515;23;20045;-80
2023/01/27 03:30:43;;;;;;;2.30;0.90;;;4.40;99.90;;;;;;6146768;23;20528;-81
2023/01/27 03:33:08;;;;;;;1.85;0.80;;;4.40;99.90;;;;;;6150404;23;20025;-81
2023/01/27 03:35:47;;;;;;;1.80;0.80;;;4.40;99.90;;;;;;6124763;23;20005;-81
2023/01/27 03:46:31;;;;;;;2.50;0.65;;;4.40;99.90;;;;;;6150787;23;20029;-81
2023/01/27 03:48:58;;;;;;;1.58;0.60;;;4.30;99.90;;;;;;6152541;23;20013;-81
2023/01/27 03:51:25;;;;;;;1.38;1.10;;;4.40;99.90;;;;;;6150833;23;20041;-81
2023/01/27 03:53:52;;;;;;;2.95;1.00;;;4.40;99.90;;;;;;6152379;23;20437;-80
2023/01/27 03:56:19;;;;;;;2.53;0.73;;;4.30;99.90;;;;;;6126798;23;20324;-82
2023/01/27 03:58:47;;;;;;;1.23;0.70;;;4.30;99.90;;;;;;6151773;23;20045;-81
2023/01/27 04:01:14;;;;;;;3.70;1.08;;;4.30;99.90;;;;;;6150896;23;20017;-81
2023/01/27 04:09:12;;;;;;;2.80;1.10;;;4.30;99.90;;;;;;6151359;23;20392;-81
2023/01/27 04:14:24;;;;;;;2.33;1.52;;;4.30;99.90;;;;;;6151549;23;20715;-80
2023/01/27 04:16:52;;;;;;;1.35;0.82;;;4.30;99.90;;;;;;6152149;23;20366;-80
2023/01/27 04:19:18;;;;;;;2.33;0.70;;;4.20;99.90;;;;;;6150921;23;20017;-81
2023/01/27 04:21:44;;;;;;;2.03;0.90;;;4.20;99.90;;;;;;6151211;23;20026;-81
2023/01/27 04:24:21;;;;;;;3.05;0.82;;;4.30;99.90;;;;;;6125338;23;20014;-82
2023/01/27 04:26:48;;;;;;;2.65;1.13;;;4.20;99.90;;;;;;6148506;23;20436;-81
2023/01/27 04:29:14;;;;;;;2.78;1.00;;;4.30;99.90;;;;;;6146696;23;20017;-80
2023/01/27 04:31:41;;;;;;;2.42;0.80;;;4.20;99.90;;;;;;6148118;23;20024;-80
2023/01/27 04:34:07;;;;;;;2.13;1.17;;;4.20;99.90;;;;;;6147132;23;20093;-80
2023/01/27 04:36:33;;;;;;;4.28;1.08;;;4.20;99.90;;;;;;6146333;23;20013;-81
2023/01/27 04:38:59;;;;;;;2.70;0.95;;;4.20;99.90;;;;;;6125133;23;20470;-80
2023/01/27 04:41:24;;;;;;;2.20;1.05;;;4.00;99.90;;;;;;6149825;23;20804;-81
2023/01/27 04:43:50;;;;;;;3.25;1.00;;;4.10;99.90;;;;;;6152955;23;20018;-81
2023/01/27 04:46:15;;;;;;;1.60;0.77;;;4.10;99.90;;;;;;6126758;23;20025;-81
2023/01/27 04:48:41;;;;;;;3.30;1.10;;;4.10;99.90;;;;;;6127258;23;20072;-82
2023/01/27 04:51:06;;;;;;;5.72;1.55;;;4.10;99.90;;;;;;6150428;23;20027;-80
2023/01/27 04:53:32;;;;;;;3.42;0.90;;;4.10;99.90;;;;;;6150689;23;20355;-81
2023/01/27 04:56:03;;;;;;;3.00;0.95;;;4.10;99.90;;;;;;6149846;23;20089;-81
2023/01/27 04:58:29;;;;;;;6.15;1.20;;;4.10;99.90;;;;;;6151351;23;20065;-80
2023/01/27 05:00:54;;;;;;;3.70;1.00;;;4.10;99.90;;;;;;6125471;23;20051;-82
2023/01/27 05:03:20;;;;;;;3.10;1.15;;;4.10;99.90;;;;;;6149681;23;20044;-81
2023/01/27 05:05:45;;;;;;;4.25;1.38;;;4.10;99.90;;;;;;6124335;23;20041;-80
2023/01/27 05:08:11;;;;;;;3.20;0.90;;;4.10;99.90;;;;;;6149254;23;20725;-80
2023/01/27 05:10:37;;;;;;;6.40;1.30;;;4.00;99.90;;;;;;6126279;23;20513;-82
2023/01/27 05:13:03;;;;;;;2.47;1.20;;;4.00;99.90;;;;;;6151555;23;20066;-83
2023/01/27 05:15:29;;;;;;;2.53;1.10;;;4.00;99.90;;;;;;6124610;23;20010;-82
2023/01/27 05:17:55;;;;;;;5.47;1.25;;;4.00;99.90;;;;;;6127969;23;20057;-81
2023/01/27 05:20:21;;;;;;;4.25;1.73;;;4.10;99.90;;;;;;6149052;23;20049;-82
2023/01/27 05:22:47;;;;;;;4.45;1.40;;;4.00;99.90;;;;;;6150440;23;20013;-81
2023/01/27 05:25:12;;;;;;;3.90;0.90;;;4.10;99.90;;;;;;6148015;23;20041;-81
2023/01/27 05:27:38;;;;;;;2.83;0.90;;;4.10;99.90;;;;;;6151368;23;20068;-82
2023/01/27 05:30:04;;;;;;;1.70;0.93;;;4.10;99.90;;;;;;6122190;23;20029;-81
2023/01/27 05:32:29;;;;;;;2.50;0.80;;;4.00;99.90;;;;;;6122022;23;20021;-80
2023/01/27 05:34:55;;;;;;;4.28;1.13;;;4.10;99.90;;;;;;6150618;23;20020;-81
2023/01/27 05:37:20;;;;;;;6.07;1.45;;;4.10;99.90;;;;;;6125522;23;20072;-82
2023/01/27 05:39:46;;;;;;;1.45;1.00;;;4.10;99.90;;;;;;6149713;23;20088;-80
2023/01/27 05:42:11;;;;;;;2.90;1.27;;;4.00;99.90;;;;;;6121375;23;20013;-85
2023/01/27 05:44:37;;;;;;;3.10;0.90;;;4.10;99.90;;;;;;6126682;23;20100;-81
2023/01/27 05:47:03;;;;;;;2.35;1.13;;;4.10;99.90;;;;;;6126311;23;20033;-80
2023/01/27 05:49:28;;;;;;;2.90;0.95;;;4.70;99.90;;;;;;6129893;23;20022;-82
2023/01/27 05:51:54;;;;;;;2.28;1.02;;;4.10;99.90;;;;;;6128869;23;20514;-81
2023/01/27 05:54:19;;;;;;;6.85;1.27;;;4.10;99.90;;;;;;6126333;23;20017;-83
2023/01/27 05:56:45;;;;;;;4.20;1.00;;;4.10;99.90;;;;;;6150951;23;20076;-83
2023/01/27 05:59:10;;;;;;;3.45;1.08;;;4.10;99.90;;;;;;6147259;23;20079;-81
2023/01/27 06:01:37;;;;;;;4.00;1.15;;;4.10;99.90;;;;;;6126560;23;20020;-81
2023/01/27 06:04:03;;;;;;;3.38;0.98;;;4.10;99.90;;;;;;6153620;23;20017;-81
2023/01/27 06:06:31;;;;;;;4.82;1.45;;;4.00;99.90;;;;;;6152145;23;20017;-81
2023/01/27 06:08:57;;;;;;;4.07;1.10;;;4.00;99.90;;;;;;6152362;23;20024;-81
2023/01/27 06:11:24;;;;;;;4.05;1.60;;;4.00;99.90;;;;;;6150372;23;20036;-82
2023/01/27 06:13:51;;;;;;;2.67;1.65;;;4.00;99.90;;;;;;6128907;23;20018;-82
2023/01/27 06:16:19;;;;;;;4.20;1.23;;;4.00;99.90;;;;;;6128588;23;20025;-80
2023/01/27 06:18:46;;;;;;;3.50;1.60;;;4.00;99.90;;;;;;6128991;23;20024;-81
2023/01/27 06:21:13;;;;;;;3.30;1.58;;;4.00;99.90;;;;;;6128118;23;20014;-81
2023/01/27 06:23:39;;;;;;;3.85;2.13;;;4.00;99.90;;;;;;6130470;23;20522;-82
2023/01/27 06:29:55;;;;;;;2.42;1.25;;;4.00;99.90;;;;;;6156057;23;20052;-82
2023/01/27 06:32:30;;;;;;;3.72;1.23;;;4.00;99.90;;;;;;6156121;23;20025;-83
2023/01/27 06:34:57;;;;;;;5.93;2.03;;;3.90;99.90;;;;;;6149731;23;20010;-83
2023/01/27 06:37:22;;;;;;;2.35;1.40;;;3.90;99.90;;;;;;6126006;23;20164;-83
2023/01/27 06:39:48;;;;;;;3.58;1.30;;;3.90;99.90;;;;;;6149152;23;20550;-84
2023/01/27 06:42:13;;;;;;;3.67;1.58;;;3.90;99.90;;;;;;6125445;23;20088;-84
2023/01/27 06:44:39;;;;;;;4.88;1.30;;;3.90;99.90;;;;;;6153431;23;20121;-83
2023/01/27 06:47:04;;;;;;;5.57;1.45;;;3.90;99.90;;;;;;6128849;23;20018;-82
2023/01/27 06:49:30;;;;;;;4.63;1.38;;;3.90;99.90;;;;;;6129289;23;20029;-82
2023/01/27 06:51:55;;;;;;;2.92;1.60;;;3.90;99.90;;;;;;6129718;23;20017;-81
2023/01/27 06:54:21;;;;;;;7.00;1.60;;;3.90;99.90;;;;;;6129852;23;20025;-82
2023/01/27 06:56:46;;;;;;;5.47;1.23;;;3.90;99.90;;;;;;6153420;23;20017;-82
2023/01/27 06:59:12;;;;;;;4.97;1.17;;;3.90;99.90;;;;;;6129318;23;20009;-83
2023/01/27 07:01:37;;;;;;;5.07;1.45;;;3.90;99.90;;;;;;6151910;23;20093;-81
2023/01/27 07:04:03;;;;;;;4.20;1.00;;;4.00;99.90;;;;;;6128842;23;20041;-81
2023/01/27 07:06:28;;;;;;;4.60;1.00;;;3.90;99.90;;;;;;6128945;23;20068;-82
2023/01/27 07:08:54;;;;;;;3.53;0.85;;;3.90;99.90;;;;;;6154766;23;20376;-82
2023/01/27 07:11:19;;;;;;;5.28;1.20;;;3.90;99.90;;;;;;6129089;23;20135;-82
2023/01/27 07:13:45;;;;;;;3.83;0.95;;;3.90;99.90;;;;;;6129323;23;20463;-81
2023/01/27 07:16:10;;;;;;;4.38;1.08;;;3.90;99.90;;;;;;6128335;23;20454;-82
2023/01/27 07:18:36;;;;;;;4.22;1.30;;;3.90;99.90;;;;;;6129794;23;20532;-81
2023/01/27 07:21:05;;;;;;;4.47;1.25;;;3.90;99.90;;;;;;6154417;23;20346;-82
2023/01/27 07:23:30;;;;;;;3.80;1.23;;;3.80;99.90;;;;;;6154838;23;20367;-82
2023/01/27 07:25:56;;;;;;;5.78;1.30;;;3.80;99.90;;;;;;6128146;23;20148;-82
2023/01/27 07:28:22;;;;;;;4.65;0.80;;;3.80;99.90;;;;;;6129648;23;20641;-82
2023/01/27 07:30:47;;;;;;;3.67;1.00;;;3.80;99.90;;;;;;6129315;23;20462;-82
2023/01/27 07:33:15;;;;;;;4.57;0.90;;;3.80;99.90;;;;;;6129932;23;20454;-82
2023/01/27 07:35:41;;;;;;;2.70;0.98;;;3.80;99.90;;;;;;6153694;23;20362;-82
2023/01/27 07:38:07;;;;;;;2.85;0.90;;;3.80;99.90;;;;;;6130524;23;20093;-82
2023/01/27 07:40:34;;;;;;;2.45;0.50;;;3.80;99.90;;;;;;6153719;23;20017;-82
2023/01/27 07:43:00;;;;;;;3.97;1.00;;;3.80;99.90;;;;;;6129024;23;20014;-83
2023/01/27 07:45:27;;;;;;;4.80;1.00;;;3.80;99.90;;;;;;6151531;23;20092;-82
2023/01/27 07:47:53;;;;;;;3.50;1.20;;;3.80;99.90;;;;;;6129828;23;20020;-82
2023/01/27 07:50:19;;;;;;;5.70;1.23;;;3.80;99.90;;;;;;6129068;23;20092;-82
2023/01/27 07:52:45;;;;;;;5.72;1.70;;;3.80;99.90;;;;;;6130319;23;20020;-82
2023/01/27 07:55:11;;;;;;;4.68;1.23;;;3.80;99.90;;;;;;6152492;23;20009;-82
2023/01/27 07:57:36;;;;;;;3.10;0.80;;;3.80;99.90;;;;;;6129519;23;20049;-82
2023/01/27 08:00:04;;;;;;;3.20;0.93;;;3.70;99.90;;;;;;6125985;23;20014;-85
2023/01/27 08:02:33;;;;;;;5.90;1.27;;;3.80;99.90;;;;;;6127256;23;20014;-82
2023/01/27 08:04:58;;;;;;;4.40;1.38;;;3.80;99.90;;;;;;6150022;23;20025;-80
2023/01/27 08:07:24;;;;;;;4.47;1.00;;;3.80;99.90;;;;;;6126850;23;20024;-82
2023/01/27 08:09:50;;;;;;;8.02;1.75;;;3.80;99.90;;;;;;6127935;23;20017;-81
2023/01/27 08:12:15;;;;;;;7.40;1.95;;;3.80;99.90;;;;;;6127322;23;20014;-81
2023/01/27 08:14:41;;;;;;;5.18;1.25;;;3.80;99.90;;;;;;6151600;23;20094;-81
2023/01/27 08:17:07;;;;;;;4.47;1.20;;;3.80;99.90;;;;;;6127324;23;20799;-82
2023/01/27 08:19:32;;;;;;;4.45;1.20;;;3.80;99.90;;;;;;6153428;23;20009;-81
2023/01/27 08:21:58;;;;;;;6.18;1.27;;;3.90;99.90;;;;;;6152516;23;20065;-81
2023/01/27 08:24:23;;;;;;;2.60;1.23;;;3.90;99.90;;;;;;6127858;23;20017;-81
2023/01/27 08:26:49;;;;;;;5.82;1.70;;;3.90;99.90;;;;;;6152301;23;20017;-82
2023/01/27 08:29:14;;;;;;;3.92;1.10;;;3.90;99.90;;;;;;6126286;23;20096;-81
2023/01/27 08:31:40;;;;;;;3.35;1.00;;;3.90;99.90;;;;;;6152876;23;20022;-81
2023/01/27 08:34:06;;;;;;;4.90;1.38;;;4.00;99.90;;;;;;6151728;23;20014;-81
2023/01/27 08:36:32;;;;;;;7.10;1.30;;;4.00;99.90;;;;;;6151785;23;20017;-82
2023/01/27 08:38:57;;;;;;;3.47;1.38;;;3.90;99.90;;;;;;6127991;23;20024;-81
2023/01/27 08:41:25;;;;;;;5.35;1.33;;;4.00;99.90;;;;;;6151946;23;20010;-82
2023/01/27 08:43:51;;;;;;;9.60;1.80;;;4.00;99.90;;;;;;6127330;23;20017;-81
2023/01/27 08:46:16;;;;;;;4.13;1.17;;;4.00;99.90;;;;;;6125195;23;20029;-81
2023/01/27 08:48:42;;;;;;;6.88;1.55;;;3.90;99.90;;;;;;6127923;23;20454;-80
2023/01/27 08:51:12;;;;;;;6.82;1.30;;;3.90;99.90;;;;;;6151738;23;20327;-81
2023/01/27 08:53:38;;;;;;;4.68;1.52;;;4.00;99.90;;;;;;6128261;23;20430;-81
2023/01/27 08:56:12;;;;;;;4.57;1.42;;;3.90;99.90;;;;;;6151366;23;20009;-81
2023/01/27 08:58:37;;;;;;;6.70;1.40;;;3.90;99.90;;;;;;6152898;23;20016;-81
2023/01/27 09:01:05;;;;;;;6.45;2.03;;;3.90;99.90;;;;;;6151037;23;20009;-81
2023/01/27 09:03:31;;;;;;;4.97;1.98;;;3.90;99.90;;;;;;6128091;23;20045;-80
2023/01/27 09:05:57;;;;;;;5.70;1.77;;;3.90;99.90;;;;;;6150160;23;20705;-80
2023/01/27 09:08:23;;;;;;;8.68;1.60;;;4.00;99.90;;;;;;6153161;23;20021;-80
2023/01/27 09:10:49;;;;;;;11.70;2.08;;;4.00;99.90;;;;;;6152539;23;20021;-81
2023/01/27 09:13:15;;;;;;;5.43;2.70;;;4.00;99.90;;;;;;6151765;23;20458;-81
2023/01/27 09:15:42;;;;;;;3.65;1.60;;;4.00;99.90;;;;;;6149934;23;20037;-81
2023/01/27 09:18:09;;;;;;;7.57;2.72;;;3.90;99.90;;;;;;6127511;23;20064;-81
2023/01/27 09:20:36;;;;;;;3.92;2.03;;;4.00;99.90;;;;;;6127917;23;20067;-81
2023/01/27 09:23:03;;;;;;;5.15;2.67;;;4.00;99.90;;;;;;6149257;23;20048;-80
2023/01/27 09:25:28;;;;;;;5.20;2.40;;;4.00;99.90;;;;;;6124842;23;20331;-80
2023/01/27 09:27:56;;;;;;;7.57;2.45;;;4.10;99.90;;;;;;6126007;23;20044;-81
2023/01/27 09:30:22;;;;;;;4.07;2.38;;;4.10;99.90;;;;;;6126995;23;20017;-80
2023/01/27 09:32:48;;;;;;;9.15;2.60;;;4.10;99.90;;;;;;6125573;23;20013;-81
2023/01/27 09:35:14;;;;;;;3.47;2.00;;;4.10;99.90;;;;;;6150324;23;20084;-81
2023/01/27 09:37:56;;;;;;;5.97;2.40;;;4.10;99.90;;;;;;6151657;23;20013;-81
2023/01/27 09:41:03;;;;;;;7.13;2.50;;;4.10;99.90;;;;;;6149800;23;20009;-80
2023/01/27 09:43:51;;;;;;;5.10;3.22;;;4.20;99.90;;;;;;6150648;23;20049;-81
2023/01/27 09:46:35;;;;;;;5.40;2.90;;;4.10;99.90;;;;;;6148801;23;20025;-81
2023/01/27 09:49:11;;;;;;;5.53;2.35;;;4.20;99.90;;;;;;6152148;23;20021;-80
2023/01/27 09:51:59;;;;;;;6.22;2.78;;;4.20;99.90;;;;;;6150728;23;20017;-81
2023/01/27 09:54:36;;;;;;;5.78;2.65;;;4.30;99.90;;;;;;6152694;23;20037;-81
2023/01/27 09:57:10;;;;;;;7.43;2.17;;;4.30;99.90;;;;;;6127061;23;20017;-81
2023/01/27 09:59:59;;;;;;;6.05;2.20;;;4.30;99.90;;;;;;6149975;23;20013;-82
2023/01/27 10:02:34;;;;;;;4.97;2.40;;;4.30;99.90;;;;;;6151874;23;20112;-81
2023/01/27 10:05:28;;;;;;;5.90;2.22;;;4.40;99.90;;;;;;6150483;23;20407;-81
2023/01/27 10:08:24;;;;;;;9.20;2.35;;;4.40;99.90;;;;;;6127492;23;20010;-81
2023/01/27 10:10:55;;;;;;;4.18;2.28;;;4.40;99.90;;;;;;6151152;23;20021;-81
2023/01/27 10:13:49;;;;;;;4.35;1.95;;;4.40;99.90;;;;;;6125737;23;20028;-81
2023/01/27 10:16:33;;;;;;;4.72;2.13;;;4.40;99.90;;;;;;6125059;23;20099;-81
2023/01/27 10:19:39;;;;;;;4.38;2.08;;;4.40;99.90;;;;;;6150597;23;20103;-81
2023/01/27 10:22:25;;;;;;;5.03;1.67;;;4.40;99.90;;;;;;6068598;23;20020;-81
2023/01/27 10:24:58;;;;;;;2.65;1.20;;;4.40;99.90;;;;;;6151334;23;20136;-81
2023/01/27 10:27:26;;;;;;;2.22;1.25;;;4.40;99.90;;;;;;6126897;23;20028;-81
2023/01/27 10:30:22;;;;;;;4.35;1.88;;;4.40;99.90;;;;;;6149249;23;20473;-81
2023/01/27 10:33:14;;;;;;;2.60;1.55;;;4.40;99.90;;;;;;6128983;23;20017;-81
2023/01/27 10:36:18;;;;;;;3.40;1.38;;;4.30;99.90;;;;;;6128286;23;20048;-81
2023/01/27 10:39:07;;;;;;;2.03;1.27;;;4.40;99.90;;;;;;6129073;23;20016;-81
2023/01/27 10:41:42;;;;;;;4.43;2.08;;;4.40;99.90;;;;;;6129768;23;20025;-82
2023/01/27 10:44:33;;;;;;;3.92;1.40;;;4.40;99.90;;;;;;6153722;23;20067;-81
2023/01/27 10:47:26;;;;;;;4.65;1.80;;;4.40;99.90;;;;;;6076552;23;20028;-81
2023/01/27 10:50:08;;;;;;;5.35;1.13;;;4.30;99.90;;;;;;6152170;23;20020;-81
2023/01/27 10:52:45;;;;;;;2.00;0.85;;;4.40;99.90;;;;;;6128177;23;20099;-81
2023/01/27 10:55:45;;;;;;;2.58;0.70;;;4.30;99.90;;;;;;6150288;23;20498;-81
2023/01/27 10:58:34;;;;;;;1.02;0.60;;;4.20;99.90;;;;;;6102996;23;20021;-81
2023/01/27 11:01:04;;;;;;;4.10;0.40;;;4.20;99.90;;;;;;6151495;23;20102;-81
2023/01/27 11:03:45;;;;;;;2.25;1.17;;;4.30;99.90;;;;;;6129604;23;20442;-81
2023/01/27 11:06:15;;;;;;;2.50;1.13;;;4.30;99.90;;;;;;6152749;23;20013;-81
2023/01/27 11:08:45;;;;;;;3.67;0.70;;;4.30;99.90;;;;;;6153711;23;20026;-81
2023/01/27 11:14:03;;;;;;;1.73;0.95;;;4.30;99.90;;;;;;6153921;23;20089;-81
2023/01/27 11:16:35;;;;;;;2.15;0.80;;;4.30;99.90;;;;;;6147124;23;20009;-81
2023/01/27 11:19:12;;;;;;;2.92;0.73;;;4.20;99.90;;;;;;6125645;23;20053;-81
2023/01/27 11:21:38;;;;;;;4.53;0.80;;;4.20;99.90;;;;;;6150810;23;20532;-81
2023/01/27 11:24:27;;;;;;;0.95;0.50;;;4.20;99.90;;;;;;6128200;23;20013;-81
2023/01/27 11:27:00;;;;;;;1.40;0.57;;;4.30;99.90;;;;;;6128103;23;20447;-81
2023/01/27 11:29:41;;;;;;;2.63;1.08;;;4.30;99.90;;;;;;6151644;23;20774;-81
2023/01/27 11:32:34;;;;;;;5.15;0.90;;;4.20;99.90;;;;;;6151331;23;20020;-81
2023/01/27 11:35:09;;;;;;;2.38;1.40;;;4.20;99.90;;;;;;6148373;23;20018;-83
2023/01/27 11:37:38;;;;;;;1.85;0.60;;;4.20;99.90;;;;;;6127908;23;20469;-83
2023/01/27 11:40:32;;;;;;;3.05;1.17;;;4.20;99.90;;;;;;6152155;23;20017;-83
2023/01/27 11:42:59;;;;;;;1.67;0.80;;;4.20;99.90;;;;;;6151016;23;20020;-82
2023/01/27 11:45:26;;;;;;;3.47;0.70;;;4.40;99.90;;;;;;6127075;23;20467;-82
2023/01/27 11:47:55;;;;;;;2.70;1.35;;;4.30;99.90;;;;;;6128539;23;20043;-83
2023/01/27 11:50:31;;;;;;;1.30;0.80;;;4.30;99.90;;;;;;6125512;23;20021;-83
2023/01/27 11:53:21;;;;;;;2.35;1.55;;;4.30;99.90;;;;;;6128026;23;20017;-82
2023/01/27 11:56:02;;;;;;;1.23;0.80;;;4.20;99.90;;;;;;6125951;23;20044;-80
2023/01/27 11:58:56;;;;;;;1.00;0.88;;;4.20;99.90;;;;;;6128208;23;20012;-81
2023/01/27 12:01:31;;;;;;;1.08;0.98;;;4.20;99.90;;;;;;6124990;23;20024;-81
2023/01/27 12:04:10;;;;;;;1.85;0.88;;;4.20;99.90;;;;;;6126976;23;20029;-81
2023/01/27 12:06:43;;;;;;;1.17;0.95;;;4.30;99.90;;;;;;6124321;23;20790;-82
2023/01/27 12:09:35;;;;;;;1.38;1.00;;;4.20;99.90;;;;;;6151051;23;20080;-81
2023/01/27 12:12:10;;;;;;;1.75;1.25;;;4.30;99.90;;;;;;6125143;23;20032;-81
2023/01/27 12:14:36;;;;;;;1.50;1.30;;;4.20;99.90;;;;;;6151567;23;20014;-81
2023/01/27 12:17:04;;;;;;;1.80;1.15;;;4.20;99.90;;;;;;6150352;23;20024;-81
2023/01/27 12:19:36;;;;;;;1.40;1.23;;;4.20;99.90;;;;;;6126095;23;20009;-81
2023/01/27 12:22:14;;;;;;;1.30;1.10;;;4.20;99.90;;;;;;6127981;23;20016;-81
2023/01/27 12:24:46;;;;;;;2.45;1.27;;;4.20;99.90;;;;;;6151336;23;20028;-81
2023/01/27 12:27:39;;;;;;;1.20;0.90;;;4.20;99.90;;;;;;6151763;23;20018;-81
2023/01/27 12:30:16;;;;;;;0.80;0.77;;;4.20;99.90;;;;;;6150924;23;20071;-81
2023/01/27 12:32:46;;;;;;;1.23;1.13;;;4.20;99.90;;;;;;6126392;23;20017;-81
2023/01/27 12:35:21;;;;;;;1.77;1.27;;;4.20;99.90;;;;;;6150554;23;20017;-81
2023/01/27 12:37:48;;;;;;;;;;;4.20;99.90;;;;;;6151972;23;20118;-81
2023/01/27 12:40:24;;;;;;;1.63;1.52;;;4.20;99.90;;;;;;6127090;23;19939;-81
2023/01/27 12:43:08;;;;;;;4.32;2.35;;;4.20;99.90;;;;;;6152252;23;20691;-81
2023/01/27 12:45:34;;;;;;;1.40;1.30;;;4.20;99.90;;;;;;6124412;23;20088;-81
2023/01/27 12:48:18;;;;;;;1.65;1.30;;;4.20;99.90;;;;;;6147348;23;20024;-81
2023/01/27 12:50:50;;;;;;;3.25;1.13;;;4.30;99.90;;;;;;6150694;23;20019;-81
2023/01/27 12:53:15;;;;;;;0.95;0.93;;;4.20;99.90;;;;;;6127512;23;20018;-81
2023/01/27 12:56:07;;;;;;;1.55;1.05;;;4.20;99.90;;;;;;6150870;23;20101;-82
2023/01/27 12:58:42;;;;;;;1.98;1.27;;;4.30;99.90;;;;;;6153075;23;20095;-81
2023/01/27 13:01:20;;;;;;;1.25;1.15;;;4.20;99.90;;;;;;6151477;23;20052;-81
2023/01/27 13:04:07;;;;;;;2.50;1.00;;;4.20;99.90;;;;;;6152186;23;20024;-81
2023/01/27 13:06:46;;;;;;;1.30;1.10;;;4.20;99.90;;;;;;6124969;23;20470;-81
2023/01/27 13:09:24;;;;;;;1.08;0.98;;;4.10;99.90;;;;;;6126970;23;20013;-81
2023/01/27 13:11:51;;;;;;;1.55;0.93;;;4.20;99.90;;;;;;6128303;23;20017;-81
2023/01/27 13:14:17;;;;;;;1.13;0.98;;;4.10;99.90;;;;;;6151745;23;20073;-81
2023/01/27 13:16:53;;;;;;;1.20;1.10;;;4.10;99.90;;;;;;6127797;23;20020;-81
2023/01/27 13:19:19;;;;;;;;;;;4.20;99.90;;;;;;6150516;23;20016;-80
2023/01/27 13:21:49;;;;;;;1.13;1.02;;;4.10;99.90;;;;;;6153362;23;20261;-82
2023/01/27 13:24:23;;;;;;;1.98;0.95;;;4.10;99.90;;;;;;6124956;23;20052;-80
2023/01/27 13:26:50;;;;;;;1.30;0.50;;;4.20;99.90;;;;;;6149391;23;20017;-81
2023/01/27 13:29:23;;;;;;;1.10;0.60;;;4.10;99.90;;;;;;6126584;23;20403;-81
2023/01/27 13:32:16;;;;;;;1.73;0.50;;;4.20;99.90;;;;;;6143296;23;20029;-81
2023/01/27 13:34:54;;;;;;;1.20;0.60;;;4.10;99.90;;;;;;6125479;23;20100;-81
2023/01/27 13:37:42;;;;;;;0.82;0.60;;;4.30;99.90;;;;;;6150821;23;20085;-81
2023/01/27 13:40:29;;;;;;;0.80;0.50;;;4.20;99.90;;;;;;6149725;23;20018;-81
2023/01/27 13:43:07;;;;;;;0.90;0.80;;;4.20;99.90;;;;;;6125910;23;20415;-81
2023/01/27 13:45:39;;;;;;;0.90;0.77;;;4.20;99.90;;;;;;6147860;23;20080;-80
2023/01/27 13:48:23;;;;;;;1.75;0.95;;;4.20;99.90;;;;;;6150283;23;20014;-81
2023/01/27 13:51:00;;;;;;;0.90;0.77;;;4.20;99.90;;;;;;6150685;23;20025;-81